LFPB/LBG METAR and TAF weather

Enter ICAO airport designator
Station Type Date Time Source
LFPB METAR 2022/06/28 13:30 UTC NOAA

LFPB 281330Z AUTO 17010G22KT 130V220 9999 NCD 26/08 Q1017 NOSIG


Station Type Date Time Source
LFPB Decoded METAR 2022/06/28 13:30 UTC NOAA

Paris / Le Bourget, France (LFPB) 48-58N 002-27E 65M
Jun 28, 2022 - 09:30 AM EDT / 2022.06.28 1330 UTC
Wind: from the S (170 degrees) at 12 MPH (10 KT) gusting to 25 MPH (22 KT) (direction variable):0
Visibility: greater than 7 mile(s):0
Temperature: 78 F (26 C)
Dew Point: 46 F (8 C)
Relative Humidity: 31%
Pressure (altimeter): 30.03 in. Hg (1017 hPa)
ob: LFPB 281330Z AUTO 17010G22KT 130V220 9999 NCD 26/08 Q1017 NOSIG
cycle: 13

Station Type Date Time Source
LFPB TAF 2022/06/28 12:21 UTC NOAA

TAF LFPB 281100Z 2812/2912 20005KT CAVOK

Example: see airport list